createdAt,value
2023-03-01T00:01:25.124Z,52.50
2023-03-01T00:03:53.850Z,47.00
2023-03-01T00:06:22.321Z,57.07
2023-03-01T00:08:50.335Z,58.47
2023-03-01T00:11:21.683Z,54.90
2023-03-01T00:13:52.668Z,59.00
2023-03-01T00:16:34.802Z,52.60
2023-03-01T00:19:02.395Z,53.30
2023-03-01T00:21:30.065Z,53.23
2023-03-01T00:23:58.290Z,54.97
2023-03-01T00:26:27.184Z,50.67
2023-03-01T00:28:54.842Z,54.37
2023-03-01T00:31:25.527Z,53.37
2023-03-01T00:34:00.432Z,54.17
2023-03-01T00:36:31.414Z,51.03
2023-03-01T00:38:58.852Z,58.50
2023-03-01T00:41:29.691Z,63.43
2023-03-01T00:43:57.129Z,62.30
2023-03-01T00:46:27.895Z,67.30
2023-03-01T00:48:55.398Z,63.87
2023-03-01T00:51:29.128Z,62.43
2023-03-01T00:53:59.248Z,62.67
2023-03-01T00:56:27.615Z,61.07
2023-03-01T00:58:54.742Z,64.27
2023-03-01T01:01:28.535Z,59.80
2023-03-01T01:04:08.380Z,66.50
2023-03-01T01:06:40.803Z,65.47
2023-03-01T01:09:09.492Z,62.07
2023-03-01T01:11:40.016Z,61.93
2023-03-01T01:14:07.113Z,66.20
2023-03-01T01:16:34.516Z,67.27
2023-03-01T01:19:01.676Z,65.43
2023-03-01T01:21:29.407Z,64.93
2023-03-01T01:23:58.094Z,63.87
2023-03-01T01:26:35.383Z,63.40
2023-03-01T01:29:05.097Z,65.83
2023-03-01T01:31:33.873Z,61.30
2023-03-01T01:34:04.239Z,60.20
2023-03-01T01:36:31.886Z,64.77
2023-03-01T01:38:59.706Z,64.37
2023-03-01T01:41:29.973Z,68.33
2023-03-01T01:44:34.705Z,63.30
2023-03-01T01:47:12.838Z,66.50
2023-03-01T01:49:47.179Z,66.87
2023-03-01T01:52:32.660Z,64.90
2023-03-01T01:55:13.086Z,67.27
2023-03-01T01:57:48.384Z,60.97
2023-03-01T02:00:22.281Z,70.17
2023-03-01T02:02:58.812Z,61.30
2023-03-01T02:05:29.334Z,69.57
2023-03-01T02:07:59.380Z,63.70
2023-03-01T02:10:28.847Z,61.03
2023-03-01T02:12:57.334Z,67.40
2023-03-01T02:15:25.352Z,64.73
2023-03-01T02:17:53.429Z,64.30
2023-03-01T02:20:40.641Z,60.63
2023-03-01T02:23:08.904Z,61.63
2023-03-01T02:25:54.923Z,64.83
2023-03-01T02:28:47.767Z,68.37
2023-03-01T02:31:39.941Z,56.17
2023-03-01T02:34:08.563Z,59.70
2023-03-01T02:37:12.869Z,59.37
2023-03-01T02:39:51.754Z,56.00
2023-03-01T02:42:27.617Z,60.13
2023-03-01T02:44:54.901Z,56.60
2023-03-01T02:47:22.072Z,57.80
2023-03-01T02:49:49.261Z,66.53
2023-03-01T02:52:34.758Z,55.30
2023-03-01T02:55:07.798Z,60.97
2023-03-01T02:57:38.875Z,57.07
2023-03-01T03:00:20.855Z,57.33
2023-03-01T03:02:54.017Z,56.93
2023-03-01T03:05:31.234Z,54.97
2023-03-01T03:08:00.858Z,62.10
2023-03-01T03:10:36.652Z,60.83
2023-03-01T03:13:11.073Z,53.83
2023-03-01T03:15:40.090Z,54.10
2023-03-01T03:18:12.162Z,55.80
2023-03-01T03:20:42.205Z,59.53
2023-03-01T03:23:09.850Z,57.57
2023-03-01T03:25:38.994Z,56.90
2023-03-01T03:28:10.990Z,59.83
2023-03-01T03:30:41.748Z,59.73
2023-03-01T03:33:13.156Z,61.27
2023-03-01T03:35:45.028Z,56.63
2023-03-01T03:38:17.942Z,59.53
2023-03-01T03:40:50.767Z,58.20
2023-03-01T03:43:22.148Z,59.87
2023-03-01T03:45:51.919Z,58.17
2023-03-01T03:48:20.122Z,56.83
2023-03-01T03:50:53.828Z,59.10
2023-03-01T03:53:23.382Z,61.53
2023-03-01T03:55:50.558Z,56.37
2023-03-01T03:58:20.714Z,54.70
2023-03-01T04:00:51.266Z,64.50
2023-03-01T04:03:21.002Z,54.60
2023-03-01T04:05:49.045Z,61.03
2023-03-01T04:08:16.215Z,62.37
2023-03-01T04:10:47.007Z,64.70
2023-03-01T04:13:21.527Z,56.60
2023-03-01T04:15:53.352Z,65.33
2023-03-01T04:18:23.129Z,56.97
2023-03-01T04:20:53.258Z,58.87
2023-03-01T04:23:21.905Z,62.97
2023-03-01T04:25:58.437Z,62.37
2023-03-01T04:28:35.660Z,55.13
2023-03-01T04:31:15.211Z,59.63
2023-03-01T04:34:03.476Z,66.47
2023-03-01T04:36:31.795Z,68.57
2023-03-01T04:38:59.155Z,65.43
2023-03-01T04:41:27.023Z,69.80
2023-03-01T04:43:54.456Z,66.47
2023-03-01T04:46:22.695Z,72.60
2023-03-01T04:48:49.985Z,68.53
2023-03-01T04:51:17.741Z,68.47
2023-03-01T04:53:45.606Z,65.77
2023-03-01T04:56:14.997Z,69.13
2023-03-01T04:58:42.610Z,74.87
2023-03-01T05:01:18.513Z,89.60
2023-03-01T05:03:52.456Z,94.60
2023-03-01T05:06:21.364Z,96.50
2023-03-01T05:08:48.684Z,93.20
2023-03-01T05:11:15.798Z,90.17
2023-03-01T05:13:43.334Z,86.23
2023-03-01T05:16:13.705Z,90.63
2023-03-01T05:18:42.416Z,86.70
2023-03-01T05:21:13.349Z,90.07
2023-03-01T05:23:40.757Z,90.33
2023-03-01T05:26:16.149Z,90.77
2023-03-01T05:28:49.790Z,82.43
2023-03-01T05:31:16.992Z,84.37
2023-03-01T05:33:44.518Z,79.70
2023-03-01T05:36:11.867Z,69.00
2023-03-01T05:38:38.940Z,80.13
2023-03-01T05:41:06.160Z,81.50
2023-03-01T05:43:35.023Z,69.93
2023-03-01T05:46:02.407Z,68.97
2023-03-01T05:48:30.618Z,65.00
2023-03-01T05:51:01.701Z,75.17
2023-03-01T05:53:28.952Z,80.07
2023-03-01T05:55:56.036Z,74.27
2023-03-01T05:58:23.102Z,65.37
2023-03-01T06:00:51.724Z,79.03
2023-03-01T06:03:19.606Z,66.37
2023-03-01T06:05:47.218Z,68.17
2023-03-01T06:08:14.831Z,72.20
2023-03-01T06:10:42.320Z,72.13
2023-03-01T06:13:09.832Z,73.57
2023-03-01T06:15:36.911Z,71.20
2023-03-01T06:18:04.336Z,75.47
2023-03-01T06:20:31.500Z,68.97
2023-03-01T06:22:58.848Z,65.10
2023-03-01T06:25:28.043Z,73.10
2023-03-01T06:27:55.722Z,71.07
2023-03-01T06:30:25.803Z,68.40
2023-03-01T06:32:53.701Z,62.03
2023-03-01T06:35:21.061Z,71.07
2023-03-01T06:37:49.127Z,60.57
2023-03-01T06:40:17.271Z,60.37
2023-03-01T06:42:50.767Z,59.17
2023-03-01T06:45:20.607Z,56.70
2023-03-01T06:47:48.224Z,57.20
2023-03-01T06:50:16.688Z,57.90
2023-03-01T06:55:14.417Z,60.27
2023-03-01T06:57:41.571Z,60.87
2023-03-01T07:00:09.683Z,59.97
2023-03-01T07:02:36.812Z,60.40
2023-03-01T07:05:04.086Z,53.90
2023-03-01T07:07:31.271Z,53.03
2023-03-01T07:09:58.354Z,57.90
2023-03-01T07:12:25.486Z,57.47
2023-03-01T07:14:52.553Z,50.63
2023-03-01T07:17:19.982Z,62.20
2023-03-01T07:19:46.995Z,53.03
2023-03-01T07:22:14.014Z,52.17
2023-03-01T07:24:43.019Z,52.00
2023-03-01T07:27:10.932Z,60.50
2023-03-01T07:29:38.300Z,52.25
2023-03-01T07:32:06.723Z,55.67
2023-03-01T07:34:33.894Z,50.78
2023-03-01T07:37:00.921Z,49.95
2023-03-01T07:39:28.043Z,48.13
2023-03-01T07:41:55.115Z,52.45
2023-03-01T07:44:22.369Z,54.08
2023-03-01T07:46:49.490Z,46.88
2023-03-01T07:49:16.482Z,60.45
2023-03-01T07:51:44.722Z,48.65
2023-03-01T07:54:11.710Z,46.50
2023-03-01T07:56:38.730Z,45.92
2023-03-01T07:59:05.765Z,43.20
2023-03-01T08:01:32.811Z,40.05
2023-03-01T08:03:59.879Z,44.33
2023-03-01T08:06:27.080Z,42.88
2023-03-01T08:08:56.383Z,44.90
2023-03-01T08:11:24.422Z,38.50
2023-03-01T08:13:53.086Z,43.13
2023-03-01T08:16:21.171Z,41.25
2023-03-01T08:18:48.380Z,34.35
2023-03-01T08:21:18.426Z,34.42
2023-03-01T08:23:45.825Z,33.15
2023-03-01T08:26:21.151Z,33.60
2023-03-01T08:28:50.022Z,30.48
2023-03-01T08:31:22.468Z,33.95
2023-03-01T08:33:56.405Z,27.80
2023-03-01T08:36:31.166Z,27.35
2023-03-01T08:38:59.383Z,32.03
2023-03-01T08:41:27.307Z,35.00
2023-03-01T08:43:59.739Z,30.50
2023-03-01T08:46:30.061Z,26.17
2023-03-01T08:48:57.819Z,28.88
2023-03-01T08:51:26.273Z,22.33
2023-03-01T08:53:53.776Z,24.10
2023-03-01T08:56:21.068Z,25.38
2023-03-01T08:58:49.913Z,24.08
2023-03-01T09:01:19.883Z,22.83
2023-03-01T09:03:47.824Z,22.58
2023-03-01T09:06:16.811Z,19.17
2023-03-01T09:08:47.488Z,21.45
2023-03-01T09:11:21.760Z,23.13
2023-03-01T09:13:50.014Z,18.58
2023-03-01T09:16:20.653Z,26.20
2023-03-01T09:18:55.039Z,24.20
2023-03-01T09:21:38.987Z,26.83
2023-03-01T09:24:14.510Z,23.67
2023-03-01T09:26:41.788Z,23.23
2023-03-01T09:29:10.598Z,24.95
2023-03-01T09:31:37.916Z,23.73
2023-03-01T09:34:05.185Z,20.45
2023-03-01T09:36:32.945Z,21.27
2023-03-01T09:39:01.134Z,22.45
2023-03-01T09:41:58.833Z,22.90
2023-03-01T09:44:47.363Z,20.08
2023-03-01T09:47:27.502Z,22.23
2023-03-01T09:50:21.939Z,21.92
2023-03-01T09:53:04.665Z,23.80
2023-03-01T09:55:39.150Z,23.55
2023-03-01T09:58:48.554Z,21.73
2023-03-01T10:01:54.601Z,23.42
2023-03-01T10:04:55.273Z,18.40
2023-03-01T10:07:47.633Z,18.50
2023-03-01T10:10:44.255Z,22.00
2023-03-01T10:13:45.928Z,22.13
2023-03-01T10:16:32.387Z,23.83
2023-03-01T10:19:06.123Z,20.67
2023-03-01T10:21:44.126Z,25.95
2023-03-01T10:24:20.073Z,24.05
2023-03-01T10:27:29.605Z,30.58
2023-03-01T10:30:35.754Z,27.65
2023-03-01T10:33:21.457Z,23.52
2023-03-01T10:35:49.564Z,23.40
2023-03-01T10:38:18.715Z,19.65
2023-03-01T10:41:16.587Z,17.52
2023-03-01T10:43:50.864Z,18.60
2023-03-01T10:46:33.911Z,20.98
2023-03-01T10:49:24.304Z,21.88
2023-03-01T10:51:54.479Z,23.48
2023-03-01T10:54:23.498Z,24.30
2023-03-01T10:56:57.892Z,23.55
2023-03-01T10:59:36.419Z,18.48
2023-03-01T11:02:29.289Z,16.75
2023-03-01T11:05:03.852Z,16.98
2023-03-01T11:07:31.029Z,13.60
2023-03-01T11:09:58.119Z,17.13
2023-03-01T11:12:26.850Z,18.25
2023-03-01T11:14:57.989Z,19.15
2023-03-01T11:17:39.031Z,20.05
2023-03-01T11:20:14.594Z,16.67
2023-03-01T11:22:56.077Z,17.02
2023-03-01T11:25:34.387Z,19.55
2023-03-01T11:28:05.148Z,13.23
2023-03-01T11:31:09.416Z,15.52
2023-03-01T11:34:00.702Z,12.23
2023-03-01T11:36:37.333Z,12.40
2023-03-01T11:39:51.522Z,13.25
2023-03-01T11:43:03.942Z,15.82
2023-03-01T11:45:53.101Z,17.70
2023-03-01T11:48:49.878Z,12.05
2023-03-01T11:52:01.015Z,12.65
2023-03-01T11:55:08.932Z,11.05
2023-03-01T11:57:54.919Z,15.30
2023-03-01T12:00:51.950Z,14.77
2023-03-01T12:04:12.657Z,14.20
2023-03-01T12:07:02.471Z,18.15
2023-03-01T12:09:48.852Z,13.27
2023-03-01T12:12:39.818Z,20.67
2023-03-01T12:16:02.350Z,15.30
2023-03-01T12:18:41.461Z,12.73
2023-03-01T12:21:25.711Z,14.93
2023-03-01T12:24:22.324Z,16.08
2023-03-01T12:27:36.585Z,18.35
2023-03-01T12:30:52.691Z,20.05
2023-03-01T12:33:37.342Z,15.65
2023-03-01T12:36:13.429Z,13.00
2023-03-01T12:39:28.410Z,17.33
2023-03-01T12:42:03.897Z,16.48
2023-03-01T12:44:44.636Z,13.38
2023-03-01T12:47:32.576Z,16.90
2023-03-01T12:50:07.106Z,17.95
2023-03-01T12:52:41.817Z,15.80
2023-03-01T12:55:36.592Z,16.85
2023-03-01T12:58:49.810Z,20.50
2023-03-01T13:01:22.890Z,18.15
2023-03-01T13:04:25.441Z,16.38
2023-03-01T13:07:26.630Z,19.58
2023-03-01T13:10:23.852Z,24.60
2023-03-01T13:12:52.583Z,20.67
2023-03-01T13:15:31.185Z,19.65
2023-03-01T13:18:12.628Z,19.15
2023-03-01T13:20:49.899Z,16.83
2023-03-01T13:23:23.000Z,16.27
2023-03-01T13:26:16.584Z,18.73
2023-03-01T13:28:47.470Z,18.67
2023-03-01T13:31:17.180Z,18.70
2023-03-01T13:33:52.883Z,21.92
2023-03-01T13:36:29.085Z,24.63
2023-03-01T13:39:33.430Z,33.15
2023-03-01T13:42:01.389Z,21.90
2023-03-01T13:44:39.724Z,24.90
2023-03-01T13:47:06.831Z,21.30
2023-03-01T13:50:00.949Z,28.15
2023-03-01T13:52:36.233Z,17.40
2023-03-01T13:55:48.348Z,23.38
2023-03-01T13:58:27.571Z,17.15
2023-03-01T14:01:05.265Z,20.73
2023-03-01T14:03:40.918Z,19.20
2023-03-01T14:06:20.885Z,16.65
2023-03-01T14:08:52.019Z,19.55
2023-03-01T14:12:03.451Z,28.30
2023-03-01T14:14:57.998Z,17.33
2023-03-01T14:17:52.411Z,20.55
2023-03-01T14:20:24.323Z,23.35
2023-03-01T14:22:59.366Z,19.88
2023-03-01T14:25:35.814Z,21.98
2023-03-01T14:28:31.534Z,25.08
2023-03-01T14:31:01.381Z,29.20
2023-03-01T14:33:35.028Z,24.35
2023-03-01T14:36:07.822Z,23.80
2023-03-01T14:38:48.648Z,20.98
2023-03-01T14:41:26.815Z,20.40
2023-03-01T14:44:02.353Z,21.45
2023-03-01T14:46:39.781Z,24.02
2023-03-01T14:49:21.809Z,23.83
2023-03-01T14:52:19.545Z,19.42
2023-03-01T14:54:54.254Z,18.83
2023-03-01T14:57:27.316Z,19.10
2023-03-01T14:59:59.265Z,22.58
2023-03-01T15:02:29.774Z,20.23
2023-03-01T15:05:08.067Z,20.42
2023-03-01T15:07:41.316Z,26.20
2023-03-01T15:10:26.794Z,29.55
2023-03-01T15:12:54.483Z,25.88
2023-03-01T15:15:37.784Z,24.48
2023-03-01T15:18:24.910Z,22.17
2023-03-01T15:20:52.824Z,19.17
2023-03-01T15:23:28.617Z,22.08
2023-03-01T15:25:57.666Z,24.10
2023-03-01T15:28:32.620Z,24.02
2023-03-01T15:31:28.406Z,27.38
2023-03-01T15:34:10.477Z,24.10
2023-03-01T15:36:51.530Z,21.50
2023-03-01T15:39:40.914Z,30.35
2023-03-01T15:42:17.695Z,28.58
2023-03-01T15:44:46.207Z,25.65
2023-03-01T15:47:32.862Z,21.60
2023-03-01T15:50:01.913Z,24.70
2023-03-01T15:52:43.712Z,24.33
2023-03-01T15:55:30.711Z,19.55
2023-03-01T15:58:03.785Z,26.77
2023-03-01T16:00:31.230Z,26.77
2023-03-01T16:02:58.405Z,23.85
2023-03-01T16:05:33.558Z,29.98
2023-03-01T16:08:01.588Z,23.92
2023-03-01T16:10:29.403Z,28.95
2023-03-01T16:12:56.460Z,28.77
2023-03-01T16:15:33.417Z,32.17
2023-03-01T16:18:01.143Z,33.03
2023-03-01T16:20:32.791Z,21.30
2023-03-01T16:23:08.209Z,26.80
2023-03-01T16:25:36.594Z,30.03
2023-03-01T16:28:09.701Z,35.37
2023-03-01T16:30:39.137Z,29.27
2023-03-01T16:33:24.196Z,27.73
2023-03-01T16:35:54.456Z,29.93
2023-03-01T16:38:21.740Z,40.35
2023-03-01T16:40:51.752Z,37.27
2023-03-01T16:43:18.874Z,30.30
2023-03-01T16:45:46.509Z,38.23
2023-03-01T16:48:13.928Z,37.23
2023-03-01T16:50:41.274Z,31.37
2023-03-01T16:53:08.607Z,32.30
2023-03-01T16:55:35.847Z,34.43
2023-03-01T16:58:03.550Z,34.77
2023-03-01T17:00:30.640Z,31.37
2023-03-01T17:02:59.045Z,31.23
2023-03-01T17:05:27.021Z,28.43
2023-03-01T17:07:56.678Z,32.50
2023-03-01T17:10:23.923Z,30.90
2023-03-01T17:12:51.358Z,36.63
2023-03-01T17:15:18.697Z,34.20
2023-03-01T17:17:45.820Z,29.23
2023-03-01T17:20:13.644Z,29.23
2023-03-01T17:22:40.689Z,29.67
2023-03-01T17:25:10.965Z,35.63
2023-03-01T17:27:39.972Z,37.23
2023-03-01T17:30:10.062Z,35.60
2023-03-01T17:32:37.406Z,37.07
2023-03-01T17:35:05.491Z,38.27
2023-03-01T17:37:32.694Z,35.57
2023-03-01T17:39:59.907Z,33.83
2023-03-01T17:42:26.945Z,33.97
2023-03-01T17:44:54.012Z,32.63
2023-03-01T17:47:21.351Z,30.13
2023-03-01T17:49:48.514Z,31.93
2023-03-01T17:52:15.762Z,43.00
2023-03-01T17:54:42.795Z,37.63
2023-03-01T17:57:09.842Z,34.50
2023-03-01T17:59:38.471Z,37.77
2023-03-01T18:02:05.604Z,34.03
2023-03-01T18:04:32.662Z,40.60
2023-03-01T18:07:00.069Z,31.87
2023-03-01T18:09:28.605Z,35.10
2023-03-01T18:11:55.817Z,35.13
2023-03-01T18:14:23.419Z,30.03
2023-03-01T18:16:50.784Z,32.60
2023-03-01T18:19:17.987Z,35.40
2023-03-01T18:21:44.985Z,36.73
2023-03-01T18:24:12.089Z,30.10
2023-03-01T18:26:40.189Z,30.87
2023-03-01T18:29:08.307Z,36.90
2023-03-01T18:31:35.611Z,33.87
2023-03-01T18:34:04.337Z,38.83
2023-03-01T18:36:35.545Z,36.17
2023-03-01T18:39:08.182Z,35.13
2023-03-01T18:41:36.692Z,35.03
2023-03-01T18:44:05.695Z,36.87
2023-03-01T18:46:36.117Z,37.63
2023-03-01T18:49:04.920Z,36.90
2023-03-01T18:51:32.559Z,38.37
2023-03-01T18:53:59.821Z,37.97
2023-03-01T18:56:31.420Z,35.83
2023-03-01T18:59:00.298Z,43.33
2023-03-01T19:01:31.063Z,37.33
2023-03-01T19:03:59.233Z,40.33
2023-03-01T19:06:33.287Z,42.57
2023-03-01T19:09:00.748Z,49.67
2023-03-01T19:11:30.976Z,40.90
2023-03-01T19:13:59.658Z,43.17
2023-03-01T19:16:30.704Z,40.97
2023-03-01T19:19:01.759Z,46.50
2023-03-01T19:21:31.767Z,46.37
2023-03-01T19:24:00.259Z,41.17
2023-03-01T19:26:31.239Z,46.23
2023-03-01T19:28:58.741Z,43.97
2023-03-01T19:31:29.942Z,39.50
2023-03-01T19:34:11.175Z,44.63
2023-03-01T19:36:42.726Z,47.77
2023-03-01T19:39:13.628Z,54.27
2023-03-01T19:41:41.727Z,56.73
2023-03-01T19:44:09.437Z,44.87
2023-03-01T19:46:36.910Z,48.27
2023-03-01T19:49:04.487Z,47.17
2023-03-01T19:51:33.522Z,50.83
2023-03-01T19:54:00.759Z,46.40
2023-03-01T19:56:27.814Z,54.80
2023-03-01T19:59:00.403Z,48.47
2023-03-01T20:01:29.910Z,51.37
2023-03-01T20:03:57.080Z,59.60
2023-03-01T20:06:25.705Z,46.50
2023-03-01T20:08:53.256Z,51.87
2023-03-01T20:11:21.231Z,51.13
2023-03-01T20:13:48.388Z,56.33
2023-03-01T20:16:20.248Z,51.20
2023-03-01T20:18:47.693Z,51.83
2023-03-01T20:21:24.008Z,54.63
2023-03-01T20:23:52.773Z,55.60
2023-03-01T20:26:20.981Z,53.43
2023-03-01T20:28:50.803Z,52.23
2023-03-01T20:31:20.603Z,49.17
2023-03-01T20:33:48.440Z,49.07
2023-03-01T20:36:16.503Z,51.87
2023-03-01T20:38:43.790Z,54.30
2023-03-01T20:41:13.337Z,54.43
2023-03-01T20:43:42.624Z,59.97
2023-03-01T20:46:13.082Z,51.87
2023-03-01T20:48:43.528Z,55.67
2023-03-01T20:51:12.584Z,58.17
2023-03-01T20:53:40.013Z,54.33
2023-03-01T20:56:11.658Z,60.43
2023-03-01T20:58:39.526Z,58.20
2023-03-01T21:01:08.242Z,55.63
2023-03-01T21:03:36.023Z,55.47
2023-03-01T21:06:06.351Z,60.50
2023-03-01T21:08:34.923Z,60.10
2023-03-01T21:11:02.796Z,57.30
2023-03-01T21:13:31.468Z,57.10
2023-03-01T21:16:07.929Z,60.73
2023-03-01T21:18:36.983Z,60.60
2023-03-01T21:21:08.850Z,52.43
2023-03-01T21:23:38.592Z,57.03
2023-03-01T21:26:15.806Z,61.47
2023-03-01T21:28:43.967Z,55.93
2023-03-01T21:31:24.447Z,55.17
2023-03-01T21:33:57.180Z,51.43
2023-03-01T21:36:27.295Z,64.20
2023-03-01T21:38:55.247Z,60.47
2023-03-01T21:41:29.519Z,51.50
2023-03-01T21:44:00.862Z,58.73
2023-03-01T21:46:32.499Z,60.83
2023-03-01T21:48:59.920Z,57.67
2023-03-01T21:51:27.932Z,58.03
2023-03-01T21:53:56.305Z,49.47
2023-03-01T21:56:28.424Z,52.73
2023-03-01T21:58:57.039Z,52.30
2023-03-01T22:01:29.927Z,47.70
2023-03-01T22:04:00.353Z,52.17
2023-03-01T22:06:40.664Z,50.77
2023-03-01T22:09:13.722Z,46.60
2023-03-01T22:11:48.883Z,53.77
2023-03-01T22:14:18.683Z,49.03
2023-03-01T22:16:47.848Z,54.47
2023-03-01T22:19:16.999Z,52.67
2023-03-01T22:21:49.597Z,50.30
2023-03-01T22:24:19.918Z,57.37
2023-03-01T22:26:48.849Z,58.77
2023-03-01T22:29:20.948Z,55.97
2023-03-01T22:31:48.559Z,59.97
2023-03-01T22:34:17.311Z,61.47
2023-03-01T22:36:45.683Z,59.03
2023-03-01T22:39:16.491Z,61.07
2023-03-01T22:41:46.611Z,61.27
2023-03-01T22:44:22.259Z,61.20
2023-03-01T22:46:50.025Z,63.17
2023-03-01T22:49:18.576Z,70.97
2023-03-01T22:51:47.718Z,66.60
2023-03-01T22:54:15.817Z,68.33
2023-03-01T22:56:43.297Z,68.67
2023-03-01T22:59:15.823Z,65.03
2023-03-01T23:01:46.411Z,66.27
2023-03-01T23:04:15.174Z,78.60
2023-03-01T23:06:54.064Z,70.13
2023-03-01T23:09:33.035Z,71.07
2023-03-01T23:12:02.593Z,71.43
2023-03-01T23:14:31.871Z,69.80
2023-03-01T23:17:01.552Z,71.57
2023-03-01T23:19:30.252Z,71.73
2023-03-01T23:21:58.070Z,66.00
2023-03-01T23:24:31.624Z,70.73
2023-03-01T23:27:02.090Z,71.70
2023-03-01T23:29:29.699Z,77.90
2023-03-01T23:31:58.238Z,74.83
2023-03-01T23:34:26.390Z,69.93
2023-03-01T23:36:54.744Z,70.60
2023-03-01T23:39:23.064Z,74.93
2023-03-01T23:41:50.274Z,67.03
2023-03-01T23:44:19.985Z,65.97
2023-03-01T23:46:49.112Z,65.40
2023-03-01T23:49:19.760Z,69.00
2023-03-01T23:51:47.983Z,65.67
2023-03-01T23:54:19.350Z,67.30
2023-03-01T23:56:46.903Z,67.23
2023-03-01T23:59:21.950Z,63.87
